Time;durP1;ratioP1;P1;durP2;ratioP2;P2;SDS_P1;SDS_P2;PMS_P1;PMS_P2;Temp;Humidity;BMP_temperature;BMP_pressure;BME280_temperature;BME280_humidity;BME280_pressure;Samples;Min_cycle;Max_cycle;Signal;HPM_P1;HPM_P2
2021/08/23 00:01:04;;;;;;;5.43;2.10;;;;;;;14.72;100.00;96277.44;4917231;29;20533;-80
2021/08/23 00:03:30;;;;;;;4.50;2.17;;;;;;;14.72;100.00;96277.44;4900231;29;20450;-80
2021/08/23 00:05:55;;;;;;;3.50;2.10;;;;;;;14.67;100.00;96274.31;4915692;29;20473;-79
2021/08/23 00:08:22;;;;;;;7.72;2.35;;;;;;;14.69;100.00;96277.66;4900777;29;20427;-80
2021/08/23 00:10:48;;;;;;;4.90;2.17;;;;;;;14.79;100.00;96277.81;4901737;29;20518;-79
2021/08/23 00:13:13;;;;;;;5.33;2.10;;;;;;;14.68;100.00;96267.31;4899727;29;20530;-80
2021/08/23 00:15:40;;;;;;;3.55;2.25;;;;;;;14.59;100.00;96262.75;4914878;29;20556;-80
2021/08/23 00:18:07;;;;;;;5.95;2.20;;;;;;;14.52;100.00;96270.19;4916091;29;20427;-79
2021/08/23 00:21:21;;;;;;;5.63;2.20;;;;;;;14.51;100.00;96265.91;4915478;29;20774;-79
2021/08/23 00:23:20;;;;;;;4.13;1.88;;;;;;;14.43;100.00;96257.78;4902375;29;20499;-79
2021/08/23 00:25:47;;;;;;;3.45;2.40;;;;;;;14.41;100.00;96254.44;4900132;29;20434;-79
2021/08/23 00:28:12;;;;;;;5.72;2.05;;;;;;;14.35;100.00;96263.53;4898866;29;20443;-79
2021/08/23 00:30:38;;;;;;;7.72;2.25;;;;;;;14.41;100.00;96267.47;4900890;29;20430;-79
2021/08/23 00:33:04;;;;;;;4.30;2.15;;;;;;;14.22;100.00;96266.13;4900912;29;20964;-79
2021/08/23 00:35:31;;;;;;;5.95;2.55;;;;;;;14.17;100.00;96264.81;4914413;29;20427;-79
2021/08/23 00:37:58;;;;;;;3.72;1.92;;;;;;;14.29;100.00;96254.34;4914224;29;20849;-79
2021/08/23 00:40:23;;;;;;;4.50;2.20;;;;;;;14.28;100.00;96250.09;4899054;29;20423;-80
2021/08/23 00:42:50;;;;;;;2.83;1.87;;;;;;;14.33;100.00;96251.53;4900181;29;20490;-79
2021/08/23 00:45:16;;;;;;;3.75;2.10;;;;;;;14.25;100.00;96246.88;4913582;29;20434;-80
2021/08/23 00:47:42;;;;;;;4.32;2.20;;;;;;;14.21;100.00;96243.63;4914862;29;20427;-80
2021/08/23 00:50:08;;;;;;;5.03;2.17;;;;;;;14.20;100.00;96244.59;4913761;29;20438;-79
2021/08/23 00:52:35;;;;;;;4.05;2.10;;;;;;;14.19;100.00;96242.06;4899368;29;20443;-80
2021/08/23 00:55:02;;;;;;;3.28;1.98;;;;;;;14.19;100.00;96242.06;4912930;29;20435;-80
2021/08/23 00:57:28;;;;;;;7.43;2.00;;;;;;;14.21;100.00;96242.81;4913509;29;20434;-80
2021/08/23 00:59:53;;;;;;;2.63;1.70;;;;;;;14.29;100.00;96249.13;4897885;29;20945;-79
2021/08/23 01:02:26;;;;;;;3.80;1.90;;;;;;;14.37;100.00;96250.38;4900320;29;20434;-80
2021/08/23 01:04:56;;;;;;;6.43;2.10;;;;;;;14.38;100.00;96252.88;4898928;29;20430;-80
2021/08/23 01:07:26;;;;;;;3.53;1.98;;;;;;;14.30;100.00;96252.56;4914290;29;20426;-80
2021/08/23 01:10:01;;;;;;;5.85;2.15;;;;;;;14.23;100.00;96249.56;4915161;29;20445;-79
2021/08/23 01:12:27;;;;;;;4.43;1.80;;;;;;;14.23;100.00;96252.16;4914333;29;20434;-79
2021/08/23 01:14:53;;;;;;;2.75;1.73;;;;;;;14.28;100.00;96252.69;4914809;29;20445;-80
2021/08/23 01:17:18;;;;;;;4.80;1.90;;;;;;;14.22;100.00;96250.50;4901337;29;20439;-80
2021/08/23 01:19:49;;;;;;;3.07;1.77;;;;;;;14.26;100.00;96254.56;4916224;29;20470;-79
2021/08/23 01:22:15;;;;;;;5.90;2.08;;;;;;;14.23;100.00;96253.94;4915561;29;20435;-79
2021/08/23 01:24:43;;;;;;;2.55;1.70;;;;;;;14.22;100.00;96254.88;4915190;29;20435;-79
2021/08/23 01:27:12;;;;;;;4.22;2.05;;;;;;;14.20;100.00;96259.34;4915451;29;20490;-79
2021/08/23 01:29:47;;;;;;;3.90;1.73;;;;;;;14.16;100.00;96253.53;4900259;29;20427;-79
2021/08/23 01:32:17;;;;;;;2.95;1.80;;;;;;;14.18;100.00;96250.84;4901896;29;20431;-78
2021/08/23 01:34:43;;;;;;;2.90;1.60;;;;;;;14.13;100.00;96258.16;4915988;29;20426;-79
2021/08/23 01:37:11;;;;;;;5.97;1.87;;;;;;;14.11;100.00;96255.63;4901594;29;20441;-79
2021/08/23 01:39:39;;;;;;;3.63;1.80;;;;;;;14.21;100.00;96255.84;4915974;29;20431;-79
2021/08/23 01:42:05;;;;;;;4.40;1.85;;;;;;;14.23;100.00;96253.94;4915330;29;20834;-79
2021/08/23 01:44:30;;;;;;;3.37;1.90;;;;;;;14.35;100.00;96255.72;4899730;29;20430;-79
2021/08/23 01:46:56;;;;;;;2.83;1.80;;;;;;;14.41;100.00;96252.66;4901992;29;20427;-80
2021/08/23 01:49:23;;;;;;;5.90;1.95;;;;;;;14.44;100.00;96255.06;4901593;29;20438;-80
2021/08/23 01:51:48;;;;;;;5.45;2.00;;;;;;;14.29;100.00;96259.56;4901413;29;20435;-80
2021/08/23 01:54:13;;;;;;;3.97;1.97;;;;;;;14.27;100.00;96253.59;4916854;29;20525;-79
2021/08/23 01:56:39;;;;;;;3.17;1.50;;;;;;;14.37;100.00;96256.41;4901898;29;20429;-80
2021/08/23 01:59:05;;;;;;;6.10;1.80;;;;;;;14.44;100.00;96254.22;4899591;29;20442;-79
2021/08/23 02:01:31;;;;;;;3.30;1.80;;;;;;;14.46;100.00;96258.41;4915017;29;20435;-80
2021/08/23 02:03:56;;;;;;;5.85;2.10;;;;;;;14.22;100.00;96258.31;4904217;29;20419;-79
2021/08/23 02:06:24;;;;;;;3.25;2.00;;;;;;;14.07;100.00;96253.34;4904848;29;20426;-79
2021/08/23 02:08:50;;;;;;;2.67;1.80;;;;;;;14.17;100.00;96251.78;4917303;29;20517;-80
2021/08/23 02:11:15;;;;;;;3.58;1.95;;;;;;;14.09;100.00;96247.09;4901643;29;20510;-79
2021/08/23 02:13:41;;;;;;;8.25;2.10;;;;;;;14.08;100.00;96253.22;4901656;29;20439;-79
2021/08/23 02:16:06;;;;;;;3.13;1.90;;;;;;;14.16;100.00;96244.88;4902068;29;20427;-79
2021/08/23 02:18:32;;;;;;;3.03;1.80;;;;;;;14.17;100.00;96244.78;4909478;29;20809;-80
2021/08/23 02:20:57;;;;;;;4.20;1.80;;;;;;;14.18;100.00;96246.44;4914358;29;20461;-79
2021/08/23 02:23:24;;;;;;;2.87;1.77;;;;;;;14.12;100.00;96246.03;4914007;29;20525;-80
2021/08/23 02:25:50;;;;;;;4.03;1.92;;;;;;;14.07;100.00;96251.56;4927724;29;20445;-79
2021/08/23 02:28:15;;;;;;;4.90;1.70;;;;;;;14.15;100.00;96245.81;4923198;29;20525;-80
2021/08/23 02:30:40;;;;;;;3.90;2.00;;;;;;;14.22;100.00;96245.28;4907253;29;20426;-80
2021/08/23 02:33:06;;;;;;;2.80;1.80;;;;;;;14.29;100.00;96249.13;4922411;29;20838;-80
2021/08/23 02:35:32;;;;;;;2.67;1.83;;;;;;;14.32;100.00;96248.09;4921183;29;20458;-79
2021/08/23 02:37:57;;;;;;;5.83;2.07;;;;;;;14.33;100.00;96248.94;4906053;29;20427;-79
2021/08/23 02:40:24;;;;;;;2.80;1.90;;;;;;;14.36;100.00;96252.16;4920188;29;21007;-80
2021/08/23 02:42:49;;;;;;;2.70;1.77;;;;;;;14.39;100.00;96251.13;4921427;29;20442;-80
2021/08/23 02:45:15;;;;;;;3.10;1.93;;;;;;;14.36;100.00;96249.56;4906195;29;20437;-80
2021/08/23 02:47:41;;;;;;;2.50;2.00;;;;;;;14.34;100.00;96250.59;4906874;29;20437;-80
2021/08/23 02:50:08;;;;;;;4.68;1.80;;;;;;;14.27;100.00;96253.59;4905525;29;20435;-80
2021/08/23 02:52:34;;;;;;;3.47;1.98;;;;;;;14.32;100.00;96253.31;4920589;29;20482;-80
2021/08/23 02:55:00;;;;;;;4.43;1.90;;;;;;;14.35;100.00;96258.31;4921033;29;20525;-80
2021/08/23 02:57:27;;;;;;;3.58;1.70;;;;;;;14.35;100.00;96257.47;4922427;29;20431;-81
2021/08/23 02:59:52;;;;;;;5.13;2.00;;;;;;;14.34;100.00;96261.00;4922991;29;20439;-82
2021/08/23 03:02:18;;;;;;;3.67;2.00;;;;;;;14.35;100.00;96257.47;4907905;29;20575;-81
2021/08/23 03:04:43;;;;;;;3.70;1.60;;;;;;;14.38;100.00;96257.25;4906685;29;20796;-80
2021/08/23 03:07:08;;;;;;;7.80;2.00;;;;;;;14.34;100.00;96251.41;4907593;29;20937;-81
2021/08/23 03:09:34;;;;;;;2.80;1.70;;;;;;;14.31;100.00;96248.19;4922097;29;20528;-80
2021/08/23 03:11:59;;;;;;;7.43;1.80;;;;;;;14.31;100.00;96253.41;4907233;29;20940;-80
2021/08/23 03:14:26;;;;;;;2.85;1.90;;;;;;;14.19;100.00;96247.28;4907667;29;20441;-80
2021/08/23 03:16:52;;;;;;;2.85;1.90;;;;;;;14.16;100.00;96239.66;4922607;29;20439;-80
2021/08/23 03:19:17;;;;;;;2.40;1.83;;;;;;;14.19;100.00;96242.06;4908731;29;20442;-80
2021/08/23 03:21:42;;;;;;;6.30;2.30;;;;;;;14.15;100.00;96249.25;4906206;29;20438;-80
2021/08/23 03:24:08;;;;;;;6.40;1.90;;;;;;;14.09;100.00;96243.63;4921980;29;20426;-81
2021/08/23 03:26:34;;;;;;;3.20;1.90;;;;;;;14.15;100.00;96240.63;4921624;29;20939;-81
2021/08/23 03:28:59;;;;;;;2.47;1.63;;;;;;;14.18;100.00;96241.25;4905453;29;20439;-80
2021/08/23 03:31:26;;;;;;;3.23;2.00;;;;;;;14.19;100.00;96236.84;4907120;29;20426;-82
2021/08/23 03:33:51;;;;;;;4.57;2.00;;;;;;;14.22;100.00;96242.69;4921135;29;20925;-80
2021/08/23 03:36:17;;;;;;;3.83;1.60;;;;;;;14.18;100.00;96237.81;4920252;29;20435;-80
2021/08/23 03:38:42;;;;;;;8.23;2.03;;;;;;;14.09;100.00;96247.09;4906147;29;20470;-80
2021/08/23 03:41:09;;;;;;;7.73;2.07;;;;;;;14.14;100.00;96245.00;4922139;29;20446;-81
2021/08/23 03:43:34;;;;;;;3.30;1.77;;;;;;;14.15;100.00;96249.25;4906684;29;20524;-80
2021/08/23 03:45:59;;;;;;;5.05;2.20;;;;;;;14.16;100.00;96243.09;4919338;29;20538;-80
2021/08/23 03:48:26;;;;;;;3.57;1.77;;;;;;;14.14;100.00;96245.00;4918926;29;20466;-80
2021/08/23 03:50:52;;;;;;;2.53;1.80;;;;;;;14.08;100.00;96255.84;4905409;29;20438;-81
2021/08/23 03:53:17;;;;;;;2.23;1.67;;;;;;;14.17;100.00;96254.38;4919134;29;20793;-80
2021/08/23 03:55:42;;;;;;;2.57;1.70;;;;;;;14.16;100.00;96250.91;4902517;29;20434;-80
2021/08/23 03:58:08;;;;;;;8.32;1.83;;;;;;;14.09;100.00;96243.63;4918233;29;20439;-80
2021/08/23 04:00:33;;;;;;;4.70;2.00;;;;;;;14.16;100.00;96252.69;4905793;29;20936;-80
2021/08/23 04:02:59;;;;;;;3.17;1.83;;;;;;;14.22;100.00;96252.28;4903235;29;20913;-80
2021/08/23 04:05:25;;;;;;;4.73;2.00;;;;;;;14.23;100.00;96254.78;4900444;29;20488;-80
2021/08/23 04:07:51;;;;;;;3.60;1.70;;;;;;;14.22;100.00;96249.69;4901881;29;20511;-80
2021/08/23 04:10:16;;;;;;;4.60;1.90;;;;;;;14.26;100.00;96246.75;4900661;29;20435;-80
2021/08/23 04:12:42;;;;;;;2.50;1.67;;;;;;;14.22;100.00;96247.06;4891480;29;20430;-81
2021/08/23 04:15:08;;;;;;;2.60;1.57;;;;;;;14.20;100.00;96247.19;4891118;29;20802;-80
2021/08/23 04:17:34;;;;;;;3.78;1.92;;;;;;;14.17;100.00;96249.19;4894987;29;20441;-80
2021/08/23 04:20:00;;;;;;;2.85;1.90;;;;;;;14.23;100.00;96254.78;4892658;29;20424;-80
2021/08/23 04:22:27;;;;;;;3.17;1.80;;;;;;;14.23;100.00;96259.16;4909760;29;20446;-80
2021/08/23 04:24:53;;;;;;;4.72;2.08;;;;;;;14.26;100.00;96257.16;4911054;29;20438;-81
2021/08/23 04:27:18;;;;;;;5.60;2.33;;;;;;;14.17;100.00;96265.63;4910560;29;20435;-81
2021/08/23 04:29:43;;;;;;;3.70;1.37;;;;;;;14.21;100.00;96256.66;4911683;29;20529;-81
2021/08/23 04:32:09;;;;;;;2.80;1.80;;;;;;;14.24;100.00;96256.47;4910732;29;20446;-82
2021/08/23 04:34:34;;;;;;;3.37;1.60;;;;;;;14.15;100.00;96264.88;4910545;29;20876;-83
2021/08/23 04:37:03;;;;;;;2.40;1.67;;;;;;;14.23;100.00;96261.75;4908502;29;20450;-81
2021/08/23 04:39:31;;;;;;;4.10;1.88;;;;;;;14.28;100.00;96262.28;4908558;29;20443;-82
2021/08/23 04:41:57;;;;;;;3.42;1.67;;;;;;;14.32;100.00;96263.72;4910382;29;20447;-81
2021/08/23 04:44:22;;;;;;;5.10;1.90;;;;;;;14.32;100.00;96268.13;4909177;29;20430;-81
2021/08/23 04:46:49;;;;;;;3.27;2.03;;;;;;;14.33;100.00;96270.59;4904364;29;20432;-81
2021/08/23 04:49:15;;;;;;;3.95;1.90;;;;;;;14.30;100.00;96276.03;4908386;29;20434;-81
2021/08/23 04:51:40;;;;;;;3.00;1.70;;;;;;;14.35;100.00;96270.47;4898196;29;20488;-81
2021/08/23 04:54:06;;;;;;;2.57;1.63;;;;;;;14.37;100.00;96273.81;4904940;29;20435;-81
2021/08/23 04:56:33;;;;;;;5.70;1.77;;;;;;;14.37;100.00;96274.66;4921746;29;20525;-81
2021/08/23 04:58:58;;;;;;;3.97;2.03;;;;;;;14.40;100.00;96279.66;4921916;29;20439;-81
2021/08/23 05:01:23;;;;;;;3.33;1.95;;;;;;;14.42;100.00;96275.16;4906668;29;20442;-80
2021/08/23 05:03:49;;;;;;;2.73;1.77;;;;;;;14.37;100.00;96272.06;4908372;29;20431;-80
2021/08/23 05:06:14;;;;;;;3.70;1.80;;;;;;;14.39;100.00;96275.41;4907027;29;20437;-80
2021/08/23 05:08:40;;;;;;;4.23;1.80;;;;;;;14.40;100.00;96271.00;4905250;29;20487;-81
2021/08/23 05:11:06;;;;;;;3.75;1.77;;;;;;;14.44;100.00;96272.47;4906169;29;20940;-81
2021/08/23 05:13:33;;;;;;;7.35;2.22;;;;;;;14.35;100.00;96273.94;4922237;29;20527;-81
2021/08/23 05:15:58;;;;;;;4.60;2.08;;;;;;;14.34;100.00;96274.03;4921236;29;20486;-81
2021/08/23 05:18:24;;;;;;;2.30;1.60;;;;;;;14.33;100.00;96273.22;4906499;29;21003;-81
2021/08/23 05:20:49;;;;;;;3.00;1.70;;;;;;;14.39;100.00;96274.56;4906389;29;20438;-80
2021/08/23 05:23:15;;;;;;;4.10;1.50;;;;;;;14.43;100.00;96276.84;4908215;29;20490;-80
2021/08/23 05:25:41;;;;;;;2.13;1.60;;;;;;;14.44;100.00;96275.06;4913605;29;20510;-82
2021/08/23 05:28:06;;;;;;;4.05;1.70;;;;;;;14.40;100.00;96284.88;4922312;29;20439;-82
2021/08/23 05:30:33;;;;;;;2.50;1.95;;;;;;;14.19;100.00;96279.38;4907272;29;20431;-82
2021/08/23 05:32:59;;;;;;;3.30;1.80;;;;;;;14.25;100.00;96278.94;4903850;29;20438;-81
2021/08/23 05:35:25;;;;;;;2.88;1.95;;;;;;;14.29;100.00;96279.56;4903546;29;20948;-81
2021/08/23 05:37:50;;;;;;;6.90;2.38;;;;;;;14.41;100.00;96277.88;4895918;29;20490;-75
2021/08/23 05:40:17;;;;;;;3.38;1.85;;;;;;;14.42;100.00;96279.53;4902369;29;20466;-80
2021/08/23 05:42:42;;;;;;;3.42;1.58;;;;;;;14.46;100.00;96281.84;4898561;29;20797;-81
2021/08/23 05:45:08;;;;;;;4.53;2.33;;;;;;;14.51;100.00;96284.16;4899948;29;20415;-82
2021/08/23 05:47:36;;;;;;;3.25;1.73;;;;;;;14.53;100.00;96282.25;4917130;29;20423;-78
2021/08/23 05:50:02;;;;;;;3.97;1.92;;;;;;;14.57;100.00;96288.09;4902800;29;20437;-80
2021/08/23 05:52:27;;;;;;;1.83;1.30;;;;;;;14.62;100.00;96289.44;4904482;29;20506;-79
2021/08/23 05:54:52;;;;;;;2.83;1.75;;;;;;;14.66;100.00;96284.84;4917694;29;20792;-79
2021/08/23 05:57:18;;;;;;;3.37;2.03;;;;;;;14.69;100.00;96282.84;4916206;29;20705;-79
2021/08/23 05:59:43;;;;;;;3.07;2.00;;;;;;;14.70;100.00;96287.13;4902056;29;20448;-80
2021/08/23 06:02:09;;;;;;;4.25;2.13;;;;;;;14.70;100.00;96284.50;4899828;29;20423;-82
2021/08/23 06:04:36;;;;;;;7.40;2.03;;;;;;;14.62;100.00;96281.63;4905952;29;20426;-79
2021/08/23 06:07:01;;;;;;;2.63;1.85;;;;;;;14.70;100.00;96284.50;4904024;29;20434;-80
2021/08/23 06:09:27;;;;;;;5.20;2.43;;;;;;;14.62;100.00;96275.59;4916593;29;20441;-79
2021/08/23 06:11:52;;;;;;;4.03;2.00;;;;;;;14.50;100.00;96275.50;4916879;29;20946;-79
2021/08/23 06:14:18;;;;;;;14.37;2.37;;;;;;;14.57;100.00;96275.88;4933147;29;20837;-78
2021/08/23 06:16:44;;;;;;;8.27;3.00;;;;;;;14.50;100.00;96277.28;4905314;29;20515;-80
2021/08/23 06:19:09;;;;;;;3.43;2.20;;;;;;;14.50;100.00;96272.91;4906399;29;20422;-81
2021/08/23 06:21:36;;;;;;;2.97;2.10;;;;;;;14.61;100.00;96279.97;4901896;29;20886;-78
2021/08/23 06:24:02;;;;;;;4.72;2.38;;;;;;;14.47;100.00;96277.47;4910626;29;20431;-79
2021/08/23 06:26:28;;;;;;;3.50;2.07;;;;;;;14.45;100.00;96277.56;4896409;29;20604;-79
2021/08/23 06:28:54;;;;;;;3.73;2.13;;;;;;;14.62;100.00;96278.19;4898101;29;20502;-80
2021/08/23 06:31:19;;;;;;;4.40;2.35;;;;;;;14.68;100.00;96278.59;4907365;29;20490;-80
2021/08/23 06:33:45;;;;;;;4.87;2.00;;;;;;;14.75;100.00;96277.19;4906147;29;20441;-81
2021/08/23 06:36:10;;;;;;;3.57;1.97;;;;;;;14.79;100.00;96275.19;4922059;29;20438;-80
2021/08/23 06:38:37;;;;;;;3.90;2.20;;;;;;;14.95;100.00;96272.34;4907995;29;21054;-80
2021/08/23 06:41:02;;;;;;;2.70;1.88;;;;;;;15.07;100.00;96268.84;4900296;29;20897;-81
2021/08/23 06:43:28;;;;;;;3.55;1.95;;;;;;;15.28;100.00;96286.47;4915199;29;20509;-79
2021/08/23 06:45:53;;;;;;;5.03;2.10;;;;;;;15.24;100.00;96276.28;4900356;29;20429;-79
2021/08/23 06:48:18;;;;;;;5.23;2.10;;;;;;;15.39;100.00;96276.09;4900073;29;20467;-79
2021/08/23 06:50:45;;;;;;;8.30;1.90;;;;;;;15.51;100.00;96287.41;4900734;29;20558;-79
2021/08/23 06:53:10;;;;;;;3.23;1.93;;;;;;;15.39;100.00;96281.31;4900730;29;20434;-79
2021/08/23 06:55:37;;;;;;;3.30;1.77;;;;;;;15.49;100.00;96283.09;4904583;29;20431;-79
2021/08/23 06:58:03;;;;;;;5.27;2.30;;;;;;;15.45;100.00;96286.06;4899266;29;20426;-79
2021/08/23 07:00:29;;;;;;;6.27;2.30;;;;;;;15.44;100.00;96287.84;4900184;29;20937;-79
2021/08/23 07:02:54;;;;;;;2.90;1.65;;;;;;;15.55;100.00;96288.84;4909639;29;20429;-80
2021/08/23 07:05:21;;;;;;;5.03;2.00;;;;;;;15.45;100.00;96286.06;4935088;29;20488;-79
2021/08/23 07:07:47;;;;;;;3.25;1.90;;;;;;;15.45;100.00;96286.06;4922224;29;20436;-80
2021/08/23 07:10:13;;;;;;;4.40;2.00;;;;;;;15.53;100.00;96282.88;4922529;29;20437;-81
2021/08/23 07:12:41;;;;;;;4.75;1.90;;;;;;;15.62;100.00;96282.22;4922861;29;20430;-79
2021/08/23 07:15:08;;;;;;;4.63;2.10;;;;;;;15.68;100.00;96285.22;4890160;29;20436;-79
2021/08/23 07:17:34;;;;;;;5.30;2.58;;;;;;;15.72;100.00;96289.28;4886919;29;20924;-79
2021/08/23 07:20:00;;;;;;;5.50;2.35;;;;;;;15.74;100.00;96283.94;4899839;29;20434;-78
2021/08/23 07:22:25;;;;;;;4.00;2.42;;;;;;;16.00;100.00;96276.72;4898141;29;20437;-80
2021/08/23 07:24:51;;;;;;;9.05;2.30;;;;;;;16.24;100.00;96281.88;4897876;29;20438;-79
2021/08/23 07:27:17;;;;;;;10.65;2.50;;;;;;;16.44;100.00;96278.53;4898288;29;20439;-78
2021/08/23 07:29:44;;;;;;;4.72;2.17;;;;;;;16.73;100.00;96275.41;4898957;29;20429;-79
2021/08/23 07:32:10;;;;;;;4.63;2.10;;;;;;;16.92;98.06;96280.03;4898544;29;20423;-78
2021/08/23 07:34:36;;;;;;;6.90;2.37;;;;;;;17.14;95.95;96274.72;4897114;29;20447;-79
2021/08/23 07:37:01;;;;;;;4.17;2.50;;;;;;;17.52;95.05;96273.38;4898436;29;20838;-78
2021/08/23 07:39:27;;;;;;;5.73;2.47;;;;;;;17.94;90.96;96276.00;4897492;29;20805;-79
2021/08/23 07:41:52;;;;;;;4.95;2.38;;;;;;;18.00;90.60;96277.31;4909872;29;20520;-79
2021/08/23 07:44:17;;;;;;;4.77;2.07;;;;;;;18.13;91.06;96281.38;4880448;29;20443;-79
2021/08/23 07:46:44;;;;;;;3.90;2.37;;;;;;;18.16;89.89;96282.06;4878477;29;20429;-79
2021/08/23 07:49:10;;;;;;;4.38;2.25;;;;;;;18.02;88.26;96280.59;4897767;29;20438;-80
2021/08/23 07:51:35;;;;;;;4.13;2.20;;;;;;;18.12;88.44;96282.31;4897740;29;20442;-79
2021/08/23 07:54:01;;;;;;;6.18;2.63;;;;;;;18.33;86.38;96287.53;4899914;29;20427;-79
2021/08/23 07:56:29;;;;;;;6.73;2.20;;;;;;;18.08;88.45;96286.16;4913717;29;20438;-73
2021/08/23 07:58:56;;;;;;;2.00;1.77;;;;;;;18.17;90.44;96288.97;4897730;29;21480;-80
2021/08/23 08:01:22;;;;;;;5.07;2.05;;;;;;;18.06;86.75;96287.28;4898079;29;20510;-80
2021/08/23 08:03:49;;;;;;;3.50;2.10;;;;;;;17.93;88.67;96281.41;4898600;29;20426;-78
2021/08/23 08:06:15;;;;;;;2.50;1.88;;;;;;;17.85;91.21;96287.28;4897842;29;20430;-79
2021/08/23 08:08:42;;;;;;;3.85;2.20;;;;;;;17.87;88.16;96291.44;4898737;29;20921;-80
2021/08/23 08:11:08;;;;;;;6.18;2.22;;;;;;;17.75;87.62;96291.59;4898373;29;20790;-79
2021/08/23 08:13:33;;;;;;;4.22;2.15;;;;;;;17.60;88.11;96289.28;4912814;29;20445;-79
2021/08/23 08:15:58;;;;;;;4.43;2.30;;;;;;;17.77;90.00;96289.72;4897583;29;20431;-79
2021/08/23 08:18:24;;;;;;;4.37;2.20;;;;;;;17.22;90.15;96292.44;4913164;29;20434;-80
2021/08/23 08:20:51;;;;;;;5.53;2.07;;;;;;;17.05;91.45;96292.94;4913686;29;20531;-80
2021/08/23 08:23:17;;;;;;;3.10;2.07;;;;;;;16.80;92.15;96288.88;4898298;29;20544;-78
2021/08/23 08:25:42;;;;;;;5.87;2.07;;;;;;;16.84;93.66;96287.66;4911912;29;20435;-77
2021/08/23 08:28:08;;;;;;;6.27;2.13;;;;;;;16.90;94.24;96287.16;4896937;29;20431;-76
2021/08/23 08:30:33;;;;;;;7.13;2.45;;;;;;;16.90;92.91;96295.00;4899727;29;20513;-76
2021/08/23 08:32:59;;;;;;;2.80;1.93;;;;;;;16.98;94.21;96297.00;4905157;29;20502;-77
2021/08/23 08:35:24;;;;;;;4.20;2.37;;;;;;;17.00;95.42;96288.09;4920650;29;20499;-76
2021/08/23 08:37:52;;;;;;;4.82;2.13;;;;;;;16.95;91.19;96290.25;4922665;29;20464;-76
2021/08/23 08:40:18;;;;;;;3.45;2.00;;;;;;;16.93;93.79;96286.91;4916159;29;20492;-76
2021/08/23 08:42:43;;;;;;;2.78;1.90;;;;;;;17.02;92.20;96287.94;4916012;29;20445;-76
2021/08/23 08:45:09;;;;;;;6.25;2.10;;;;;;;17.15;94.42;96292.09;4902843;29;20430;-76
2021/08/23 08:47:39;;;;;;;3.53;2.13;;;;;;;17.12;89.13;96289.72;4896577;29;20454;-76
2021/08/23 08:50:05;;;;;;;3.47;2.00;;;;;;;17.02;88.42;96294.03;4895611;29;20419;-76
2021/08/23 08:52:32;;;;;;;2.90;2.08;;;;;;;17.47;90.03;96290.44;4896765;29;20486;-76
2021/08/23 08:54:59;;;;;;;2.63;1.70;;;;;;;17.75;90.02;96295.06;4894657;29;20506;-76
2021/08/23 08:57:24;;;;;;;4.05;2.10;;;;;;;18.15;88.03;96294.34;4895895;29;20439;-77
2021/08/23 08:59:49;;;;;;;5.03;2.50;;;;;;;18.75;84.76;96292.69;4896908;29;20818;-76
2021/08/23 09:02:15;;;;;;;2.67;2.00;;;;;;;19.21;79.49;96301.78;4895496;29;20439;-77
2021/08/23 09:04:41;;;;;;;3.27;2.07;;;;;;;19.35;77.59;96297.88;4896143;29;20436;-76
2021/08/23 09:07:07;;;;;;;2.70;1.77;;;;;;;18.91;74.70;96302.69;4896429;29;20486;-76
2021/08/23 09:09:33;;;;;;;4.53;2.00;;;;;;;18.56;78.46;96306.53;4896576;29;20427;-76
2021/08/23 09:12:03;;;;;;;5.47;2.13;;;;;;;18.80;81.25;96310.63;4896111;29;20518;-76
2021/08/23 09:14:30;;;;;;;4.40;2.20;;;;;;;18.59;77.63;96308.06;4895918;29;20483;-77
2021/08/23 09:17:03;;;;;;;3.70;1.88;;;;;;;18.37;81.97;96316.94;4911287;29;20482;-77
2021/08/23 09:19:29;;;;;;;4.30;1.80;;;;;;;18.36;83.50;96312.69;4911162;29;20948;-77
2021/08/23 09:21:59;;;;;;;2.87;2.07;;;;;;;18.25;80.97;96315.38;4896818;29;20438;-77
2021/08/23 09:24:24;;;;;;;5.35;2.20;;;;;;;18.25;82.04;96310.13;4895792;29;20898;-76
2021/08/23 09:26:50;;;;;;;2.00;1.63;;;;;;;18.13;82.48;96307.59;4882990;29;20523;-77
2021/08/23 09:29:17;;;;;;;3.17;1.90;;;;;;;17.99;81.46;96313.16;4890719;29;20442;-77
2021/08/23 09:31:43;;;;;;;2.80;1.85;;;;;;;17.93;84.35;96323.31;4896218;29;20431;-77
2021/08/23 09:34:10;;;;;;;3.13;2.10;;;;;;;17.80;83.30;96318.28;4891105;29;20448;-77
2021/08/23 09:36:36;;;;;;;3.03;1.83;;;;;;;17.80;82.47;96319.13;4875997;29;20852;-77
2021/08/23 09:39:04;;;;;;;2.87;1.80;;;;;;;17.67;83.00;96321.03;4877198;29;20428;-74
2021/08/23 09:41:29;;;;;;;2.77;1.80;;;;;;;17.79;86.13;96324.47;4877595;29;20531;-76
2021/08/23 09:43:59;;;;;;;3.90;2.23;;;;;;;17.78;87.19;96326.25;4879376;29;20512;-78
2021/08/23 09:46:26;;;;;;;3.22;1.88;;;;;;;17.81;86.73;96323.38;4895711;29;20789;-76
2021/08/23 09:48:53;;;;;;;3.35;2.25;;;;;;;17.67;86.86;96328.91;4896014;29;20514;-76
2021/08/23 09:51:27;;;;;;;4.50;2.13;;;;;;;17.97;86.60;96329.97;4895970;29;20489;-76
2021/08/23 09:54:06;;;;;;;4.13;1.90;;;;;;;18.32;85.88;96332.25;4894888;29;20433;-76
2021/08/23 09:56:33;;;;;;;2.97;1.92;;;;;;;18.27;84.68;96327.38;4895675;29;20434;-76
2021/08/23 09:59:00;;;;;;;4.30;2.20;;;;;;;17.97;85.84;96332.59;4894189;29;20433;-76
2021/08/23 10:01:28;;;;;;;3.90;2.03;;;;;;;17.96;86.34;96334.38;4877214;29;20445;-76
2021/08/23 10:03:53;;;;;;;4.05;1.95;;;;;;;18.19;87.38;96336.88;4878979;29;20501;-75
2021/08/23 10:06:19;;;;;;;3.35;2.50;;;;;;;18.22;88.36;96334.00;4895432;29;20426;-76
2021/08/23 10:08:46;;;;;;;3.03;1.90;;;;;;;18.26;85.85;96327.53;4894617;29;20470;-76
2021/08/23 10:11:14;;;;;;;2.33;1.83;;;;;;;18.20;88.29;96333.28;4894655;29;20434;-76
2021/08/23 10:13:41;;;;;;;4.18;1.90;;;;;;;18.34;84.07;96325.06;4894073;29;20470;-76
2021/08/23 10:16:07;;;;;;;3.73;2.00;;;;;;;18.23;85.10;96327.78;4895648;29;20508;-77
2021/08/23 10:18:34;;;;;;;3.42;2.30;;;;;;;18.17;86.60;96325.66;4896157;29;20487;-79
2021/08/23 10:21:00;;;;;;;3.90;2.35;;;;;;;18.06;83.12;96330.03;4898342;29;20463;-79
2021/08/23 10:23:26;;;;;;;3.37;1.80;;;;;;;18.15;84.34;96320.56;4899639;29;20457;-78
2021/08/23 10:25:51;;;;;;;2.85;2.10;;;;;;;18.08;84.57;96335.97;4901696;29;20462;-78
2021/08/23 10:28:20;;;;;;;3.90;2.30;;;;;;;18.12;84.18;96326.88;4902502;29;20438;-78
2021/08/23 10:30:47;;;;;;;3.45;1.90;;;;;;;18.11;86.28;96322.59;4900407;29;20435;-78
2021/08/23 10:33:14;;;;;;;2.95;2.10;;;;;;;18.12;88.59;96324.25;4900728;29;20972;-78
2021/08/23 10:35:50;;;;;;;4.63;2.40;;;;;;;17.99;87.59;96331.50;4899000;29;20430;-78
2021/08/23 10:38:18;;;;;;;3.88;2.40;;;;;;;17.69;89.33;96331.38;4900889;29;20775;-78
2021/08/23 10:40:44;;;;;;;3.30;2.35;;;;;;;17.51;94.00;96337.19;4899917;29;20864;-78
2021/08/23 10:43:13;;;;;;;3.33;2.25;;;;;;;17.16;94.17;96340.03;4900157;29;20469;-78
2021/08/23 10:45:39;;;;;;;6.80;2.70;;;;;;;17.29;96.76;96337.28;4913064;29;20438;-78
2021/08/23 10:48:12;;;;;;;5.70;2.45;;;;;;;17.30;96.26;96328.44;4907232;29;20429;-78
2021/08/23 10:50:38;;;;;;;4.70;2.30;;;;;;;17.25;95.86;96333.25;4918526;29;20425;-78
2021/08/23 10:53:11;;;;;;;3.77;2.37;;;;;;;17.26;96.83;96327.88;4918372;29;20515;-78
2021/08/23 10:55:37;;;;;;;3.85;2.15;;;;;;;17.25;98.79;96326.22;4918303;29;20437;-78
2021/08/23 10:58:04;;;;;;;3.65;2.20;;;;;;;17.30;96.58;96323.22;4912585;29;20466;-78
2021/08/23 11:00:35;;;;;;;3.53;2.20;;;;;;;17.59;100.00;96319.06;4899318;29;20426;-77
2021/08/23 11:03:01;;;;;;;3.15;1.98;;;;;;;17.87;96.70;96322.03;4899326;29;20485;-78
2021/08/23 11:05:27;;;;;;;2.92;1.90;;;;;;;17.70;100.00;96317.34;4899016;29;20426;-78
2021/08/23 11:07:59;;;;;;;5.60;2.33;;;;;;;18.20;98.26;96320.16;4899135;29;20434;-77
2021/08/23 11:10:26;;;;;;;3.72;2.20;;;;;;;18.74;100.00;96311.19;4898831;29;20463;-77
2021/08/23 11:12:54;;;;;;;2.47;1.97;;;;;;;19.06;88.81;96326.75;4898965;29;20433;-78
2021/08/23 11:15:27;;;;;;;3.95;2.55;;;;;;;19.36;94.44;96315.34;4900356;29;20435;-79
2021/08/23 11:17:59;;;;;;;3.17;2.20;;;;;;;19.74;90.64;96314.53;4899715;29;20435;-79
2021/08/23 11:20:26;;;;;;;2.88;1.95;;;;;;;19.81;89.15;96312.16;4898524;29;20434;-79
2021/08/23 11:22:53;;;;;;;4.90;2.30;;;;;;;19.68;86.14;96309.00;4899541;29;20474;-79